sensor_id;sensor_type;location;lat;lon;timestamp;temperature;humidity
33943;DHT22;66763;47.856;17.462;2023-11-18T00:02:08;14.30;51.60
33943;DHT22;66763;47.856;17.462;2023-11-18T00:04:34;14.30;51.60
33943;DHT22;66763;47.856;17.462;2023-11-18T00:06:59;14.30;51.60
33943;DHT22;66763;47.856;17.462;2023-11-18T00:09:25;14.30;51.60
33943;DHT22;66763;47.856;17.462;2023-11-18T00:11:50;14.30;51.60
33943;DHT22;66763;47.856;17.462;2023-11-18T00:14:16;14.20;51.60
33943;DHT22;66763;47.856;17.462;2023-11-18T00:16:43;14.30;51.60
33943;DHT22;66763;47.856;17.462;2023-11-18T00:19:08;14.30;51.70
33943;DHT22;66763;47.856;17.462;2023-11-18T00:21:34;14.30;51.60
33943;DHT22;66763;47.856;17.462;2023-11-18T00:24:01;14.20;51.60
33943;DHT22;66763;47.856;17.462;2023-11-18T00:26:26;14.30;51.60
33943;DHT22;66763;47.856;17.462;2023-11-18T00:28:52;14.30;51.60
33943;DHT22;66763;47.856;17.462;2023-11-18T00:31:18;14.20;51.60
33943;DHT22;66763;47.856;17.462;2023-11-18T00:33:43;14.20;51.60
33943;DHT22;66763;47.856;17.462;2023-11-18T00:36:08;14.20;51.60
33943;DHT22;66763;47.856;17.462;2023-11-18T00:38:35;14.20;51.60
33943;DHT22;66763;47.856;17.462;2023-11-18T00:41:01;14.20;51.60
33943;DHT22;66763;47.856;17.462;2023-11-18T00:43:26;14.20;51.60
33943;DHT22;66763;47.856;17.462;2023-11-18T00:45:51;14.20;51.60
33943;DHT22;66763;47.856;17.462;2023-11-18T00:48:17;14.30;51.60
33943;DHT22;66763;47.856;17.462;2023-11-18T00:50:42;14.20;51.60
33943;DHT22;66763;47.856;17.462;2023-11-18T00:53:08;14.20;51.60
33943;DHT22;66763;47.856;17.462;2023-11-18T00:55:35;14.30;51.60
33943;DHT22;66763;47.856;17.462;2023-11-18T00:58:01;14.20;51.50
33943;DHT22;66763;47.856;17.462;2023-11-18T01:00:26;14.20;51.60
33943;DHT22;66763;47.856;17.462;2023-11-18T01:02:52;14.30;51.60
33943;DHT22;66763;47.856;17.462;2023-11-18T01:05:18;14.20;51.60
33943;DHT22;66763;47.856;17.462;2023-11-18T01:07:44;14.20;51.60
33943;DHT22;66763;47.856;17.462;2023-11-18T01:10:10;14.20;51.60
33943;DHT22;66763;47.856;17.462;2023-11-18T01:12:35;14.20;51.60
33943;DHT22;66763;47.856;17.462;2023-11-18T01:15:01;14.20;51.50
33943;DHT22;66763;47.856;17.462;2023-11-18T01:17:28;14.20;51.60
33943;DHT22;66763;47.856;17.462;2023-11-18T01:19:54;14.20;51.60
33943;DHT22;66763;47.856;17.462;2023-11-18T01:22:20;14.20;51.50
33943;DHT22;66763;47.856;17.462;2023-11-18T01:24:46;14.20;51.50
33943;DHT22;66763;47.856;17.462;2023-11-18T01:27:12;14.20;51.50
33943;DHT22;66763;47.856;17.462;2023-11-18T01:29:37;14.20;51.50
33943;DHT22;66763;47.856;17.462;2023-11-18T01:32:04;14.20;51.60
33943;DHT22;66763;47.856;17.462;2023-11-18T01:34:37;14.20;51.50
33943;DHT22;66763;47.856;17.462;2023-11-18T01:37:05;14.20;51.60
33943;DHT22;66763;47.856;17.462;2023-11-18T01:39:36;14.20;51.60
33943;DHT22;66763;47.856;17.462;2023-11-18T01:42:02;14.20;51.60
33943;DHT22;66763;47.856;17.462;2023-11-18T01:44:28;14.20;51.50
33943;DHT22;66763;47.856;17.462;2023-11-18T01:46:57;14.20;51.50
33943;DHT22;66763;47.856;17.462;2023-11-18T01:49:23;14.20;51.50
33943;DHT22;66763;47.856;17.462;2023-11-18T01:51:49;14.20;51.50
33943;DHT22;66763;47.856;17.462;2023-11-18T01:54:16;14.20;51.50
33943;DHT22;66763;47.856;17.462;2023-11-18T01:56:44;14.20;51.50
33943;DHT22;66763;47.856;17.462;2023-11-18T01:59:11;14.20;51.50
33943;DHT22;66763;47.856;17.462;2023-11-18T02:01:45;14.20;51.60
33943;DHT22;66763;47.856;17.462;2023-11-18T02:04:11;14.20;51.50
33943;DHT22;66763;47.856;17.462;2023-11-18T02:06:38;14.20;51.50
33943;DHT22;66763;47.856;17.462;2023-11-18T02:09:03;14.20;51.50
33943;DHT22;66763;47.856;17.462;2023-11-18T02:11:34;14.20;51.50
33943;DHT22;66763;47.856;17.462;2023-11-18T02:14:06;14.20;51.50
33943;DHT22;66763;47.856;17.462;2023-11-18T02:16:36;14.20;51.50
33943;DHT22;66763;47.856;17.462;2023-11-18T02:19:02;14.20;51.50
33943;DHT22;66763;47.856;17.462;2023-11-18T02:21:30;14.20;51.50
33943;DHT22;66763;47.856;17.462;2023-11-18T02:23:58;14.20;51.60
33943;DHT22;66763;47.856;17.462;2023-11-18T02:26:24;14.20;51.50
33943;DHT22;66763;47.856;17.462;2023-11-18T02:28:51;14.20;51.50
33943;DHT22;66763;47.856;17.462;2023-11-18T02:31:30;14.20;51.50
33943;DHT22;66763;47.856;17.462;2023-11-18T02:34:02;14.20;51.50
33943;DHT22;66763;47.856;17.462;2023-11-18T02:36:31;14.20;51.50
33943;DHT22;66763;47.856;17.462;2023-11-18T02:39:01;14.20;51.50
33943;DHT22;66763;47.856;17.462;2023-11-18T02:41:28;14.20;51.50
33943;DHT22;66763;47.856;17.462;2023-11-18T02:43:54;14.20;51.50
33943;DHT22;66763;47.856;17.462;2023-11-18T02:46:23;14.20;51.50
33943;DHT22;66763;47.856;17.462;2023-11-18T02:48:52;14.20;51.60
33943;DHT22;66763;47.856;17.462;2023-11-18T02:51:19;14.20;51.60
33943;DHT22;66763;47.856;17.462;2023-11-18T02:53:44;14.20;51.50
33943;DHT22;66763;47.856;17.462;2023-11-18T02:56:10;14.20;51.50
33943;DHT22;66763;47.856;17.462;2023-11-18T02:58:37;14.20;51.50
33943;DHT22;66763;47.856;17.462;2023-11-18T03:01:03;14.20;51.50
33943;DHT22;66763;47.856;17.462;2023-11-18T03:03:30;14.20;51.50
33943;DHT22;66763;47.856;17.462;2023-11-18T03:05:55;14.20;51.50
33943;DHT22;66763;47.856;17.462;2023-11-18T03:08:21;14.20;51.50
33943;DHT22;66763;47.856;17.462;2023-11-18T03:10:46;14.20;51.60
33943;DHT22;66763;47.856;17.462;2023-11-18T03:13:12;14.20;51.50
33943;DHT22;66763;47.856;17.462;2023-11-18T03:15:37;14.20;51.60
33943;DHT22;66763;47.856;17.462;2023-11-18T03:18:03;14.20;51.50
33943;DHT22;66763;47.856;17.462;2023-11-18T03:20:31;14.20;51.50
33943;DHT22;66763;47.856;17.462;2023-11-18T03:22:58;14.20;51.40
33943;DHT22;66763;47.856;17.462;2023-11-18T03:25:25;14.20;51.50
33943;DHT22;66763;47.856;17.462;2023-11-18T03:27:50;14.20;51.50
33943;DHT22;66763;47.856;17.462;2023-11-18T03:30:16;14.20;51.50
33943;DHT22;66763;47.856;17.462;2023-11-18T03:32:42;14.20;51.50
33943;DHT22;66763;47.856;17.462;2023-11-18T03:35:07;14.20;51.50
33943;DHT22;66763;47.856;17.462;2023-11-18T03:37:36;14.20;51.50
33943;DHT22;66763;47.856;17.462;2023-11-18T03:40:13;14.20;51.40
33943;DHT22;66763;47.856;17.462;2023-11-18T03:42:39;14.20;51.50
33943;DHT22;66763;47.856;17.462;2023-11-18T03:45:05;14.20;51.50
33943;DHT22;66763;47.856;17.462;2023-11-18T03:47:31;14.20;51.40
33943;DHT22;66763;47.856;17.462;2023-11-18T03:49:56;14.20;51.50
33943;DHT22;66763;47.856;17.462;2023-11-18T03:52:22;14.20;51.50
33943;DHT22;66763;47.856;17.462;2023-11-18T03:54:48;14.20;51.40
33943;DHT22;66763;47.856;17.462;2023-11-18T03:57:13;14.20;51.50
33943;DHT22;66763;47.856;17.462;2023-11-18T03:59:39;14.20;51.40
33943;DHT22;66763;47.856;17.462;2023-11-18T04:02:06;14.20;51.50
33943;DHT22;66763;47.856;17.462;2023-11-18T04:04:31;14.20;51.50
33943;DHT22;66763;47.856;17.462;2023-11-18T04:06:57;14.20;51.50
33943;DHT22;66763;47.856;17.462;2023-11-18T04:09:22;14.20;51.50
33943;DHT22;66763;47.856;17.462;2023-11-18T04:11:48;14.10;51.40
33943;DHT22;66763;47.856;17.462;2023-11-18T04:14:14;14.10;51.50
33943;DHT22;66763;47.856;17.462;2023-11-18T04:16:39;14.20;51.50
33943;DHT22;66763;47.856;17.462;2023-11-18T04:19:05;14.20;51.50
33943;DHT22;66763;47.856;17.462;2023-11-18T04:21:31;14.20;51.40
33943;DHT22;66763;47.856;17.462;2023-11-18T04:23:57;14.10;52.00
33943;DHT22;66763;47.856;17.462;2023-11-18T04:26:22;14.20;51.50
33943;DHT22;66763;47.856;17.462;2023-11-18T04:28:49;14.20;51.50
33943;DHT22;66763;47.856;17.462;2023-11-18T04:31:15;14.10;51.40
33943;DHT22;66763;47.856;17.462;2023-11-18T04:33:40;14.10;51.50
33943;DHT22;66763;47.856;17.462;2023-11-18T04:36:07;14.10;51.40
33943;DHT22;66763;47.856;17.462;2023-11-18T04:38:35;14.20;51.40
33943;DHT22;66763;47.856;17.462;2023-11-18T04:41:00;14.10;51.40
33943;DHT22;66763;47.856;17.462;2023-11-18T04:43:28;14.20;51.50
33943;DHT22;66763;47.856;17.462;2023-11-18T04:45:54;14.10;51.50
33943;DHT22;66763;47.856;17.462;2023-11-18T04:48:19;14.10;51.50
33943;DHT22;66763;47.856;17.462;2023-11-18T04:50:46;14.10;51.50
33943;DHT22;66763;47.856;17.462;2023-11-18T04:53:12;14.10;51.50
33943;DHT22;66763;47.856;17.462;2023-11-18T04:55:37;14.10;51.40
33943;DHT22;66763;47.856;17.462;2023-11-18T04:58:03;14.10;51.50
33943;DHT22;66763;47.856;17.462;2023-11-18T05:00:31;14.10;51.40
33943;DHT22;66763;47.856;17.462;2023-11-18T05:02:57;14.10;51.40
33943;DHT22;66763;47.856;17.462;2023-11-18T05:05:23;14.10;51.40
33943;DHT22;66763;47.856;17.462;2023-11-18T05:07:48;14.10;51.40
33943;DHT22;66763;47.856;17.462;2023-11-18T05:10:14;14.10;51.50
33943;DHT22;66763;47.856;17.462;2023-11-18T05:12:39;14.10;51.40
33943;DHT22;66763;47.856;17.462;2023-11-18T05:15:05;14.10;51.40
33943;DHT22;66763;47.856;17.462;2023-11-18T05:17:36;14.10;51.40
33943;DHT22;66763;47.856;17.462;2023-11-18T05:20:05;14.10;51.40
33943;DHT22;66763;47.856;17.462;2023-11-18T05:22:34;14.10;51.40
33943;DHT22;66763;47.856;17.462;2023-11-18T05:24:59;14.10;51.40
33943;DHT22;66763;47.856;17.462;2023-11-18T05:27:25;14.10;51.40
33943;DHT22;66763;47.856;17.462;2023-11-18T05:29:52;14.10;51.40
33943;DHT22;66763;47.856;17.462;2023-11-18T05:32:20;14.10;51.40
33943;DHT22;66763;47.856;17.462;2023-11-18T05:34:46;14.10;51.50
33943;DHT22;66763;47.856;17.462;2023-11-18T05:37:11;14.10;51.40
33943;DHT22;66763;47.856;17.462;2023-11-18T05:39:37;14.10;51.40
33943;DHT22;66763;47.856;17.462;2023-11-18T05:42:08;14.10;51.40
33943;DHT22;66763;47.856;17.462;2023-11-18T05:44:36;14.10;51.40
33943;DHT22;66763;47.856;17.462;2023-11-18T05:47:03;14.10;51.40
33943;DHT22;66763;47.856;17.462;2023-11-18T05:49:28;14.10;51.40
33943;DHT22;66763;47.856;17.462;2023-11-18T05:51:54;14.10;51.50
33943;DHT22;66763;47.856;17.462;2023-11-18T05:54:19;14.10;51.40
33943;DHT22;66763;47.856;17.462;2023-11-18T05:56:45;14.10;51.50
33943;DHT22;66763;47.856;17.462;2023-11-18T05:59:10;14.10;51.40
33943;DHT22;66763;47.856;17.462;2023-11-18T06:01:36;14.10;51.40
33943;DHT22;66763;47.856;17.462;2023-11-18T06:04:02;14.10;51.40
33943;DHT22;66763;47.856;17.462;2023-11-18T06:06:28;14.10;51.40
33943;DHT22;66763;47.856;17.462;2023-11-18T06:08:53;14.10;51.40
33943;DHT22;66763;47.856;17.462;2023-11-18T06:11:19;14.10;51.40
33943;DHT22;66763;47.856;17.462;2023-11-18T06:13:45;14.10;51.40
33943;DHT22;66763;47.856;17.462;2023-11-18T06:18:44;14.10;51.40
33943;DHT22;66763;47.856;17.462;2023-11-18T06:21:11;14.10;51.40
33943;DHT22;66763;47.856;17.462;2023-11-18T06:23:36;14.10;51.40
33943;DHT22;66763;47.856;17.462;2023-11-18T06:26:02;14.10;51.40
33943;DHT22;66763;47.856;17.462;2023-11-18T06:28:27;14.10;51.40
33943;DHT22;66763;47.856;17.462;2023-11-18T06:30:53;14.10;51.40
33943;DHT22;66763;47.856;17.462;2023-11-18T06:33:19;14.10;51.30
33943;DHT22;66763;47.856;17.462;2023-11-18T06:35:48;14.10;51.30
33943;DHT22;66763;47.856;17.462;2023-11-18T06:38:13;14.10;51.30
33943;DHT22;66763;47.856;17.462;2023-11-18T06:40:40;14.10;51.30
33943;DHT22;66763;47.856;17.462;2023-11-18T06:43:06;14.10;51.40
33943;DHT22;66763;47.856;17.462;2023-11-18T06:45:36;14.10;51.30
33943;DHT22;66763;47.856;17.462;2023-11-18T06:48:03;14.10;51.40
33943;DHT22;66763;47.856;17.462;2023-11-18T06:50:30;14.10;51.30
33943;DHT22;66763;47.856;17.462;2023-11-18T06:52:57;14.10;51.30
33943;DHT22;66763;47.856;17.462;2023-11-18T06:55:22;14.10;51.30
33943;DHT22;66763;47.856;17.462;2023-11-18T06:57:48;14.10;51.30
33943;DHT22;66763;47.856;17.462;2023-11-18T07:00:13;14.10;51.30
33943;DHT22;66763;47.856;17.462;2023-11-18T07:02:40;14.10;51.30
33943;DHT22;66763;47.856;17.462;2023-11-18T07:05:06;14.10;51.30
33943;DHT22;66763;47.856;17.462;2023-11-18T07:07:31;14.10;51.30
33943;DHT22;66763;47.856;17.462;2023-11-18T07:09:57;14.10;51.30
33943;DHT22;66763;47.856;17.462;2023-11-18T07:12:23;14.10;51.30
33943;DHT22;66763;47.856;17.462;2023-11-18T07:14:48;14.10;51.30
33943;DHT22;66763;47.856;17.462;2023-11-18T07:17:14;14.10;51.30
33943;DHT22;66763;47.856;17.462;2023-11-18T07:19:39;14.10;51.30
33943;DHT22;66763;47.856;17.462;2023-11-18T07:22:05;14.10;51.30
33943;DHT22;66763;47.856;17.462;2023-11-18T07:24:32;14.10;51.30
33943;DHT22;66763;47.856;17.462;2023-11-18T07:26:57;14.10;51.30
33943;DHT22;66763;47.856;17.462;2023-11-18T07:29:25;14.10;51.30
33943;DHT22;66763;47.856;17.462;2023-11-18T07:31:52;14.10;51.30
33943;DHT22;66763;47.856;17.462;2023-11-18T07:34:20;14.10;51.30
33943;DHT22;66763;47.856;17.462;2023-11-18T07:36:46;14.10;51.30
33943;DHT22;66763;47.856;17.462;2023-11-18T07:39:13;14.10;51.30
33943;DHT22;66763;47.856;17.462;2023-11-18T07:41:41;14.10;51.30
33943;DHT22;66763;47.856;17.462;2023-11-18T07:44:07;14.00;51.20
33943;DHT22;66763;47.856;17.462;2023-11-18T07:46:36;14.10;51.20
33943;DHT22;66763;47.856;17.462;2023-11-18T07:49:03;14.10;51.20
33943;DHT22;66763;47.856;17.462;2023-11-18T07:51:29;14.10;51.20
33943;DHT22;66763;47.856;17.462;2023-11-18T07:53:55;14.10;51.30
33943;DHT22;66763;47.856;17.462;2023-11-18T07:56:20;14.10;51.20
33943;DHT22;66763;47.856;17.462;2023-11-18T07:58:47;14.00;51.20
33943;DHT22;66763;47.856;17.462;2023-11-18T08:01:13;14.10;51.20
33943;DHT22;66763;47.856;17.462;2023-11-18T08:03:41;14.10;51.20
33943;DHT22;66763;47.856;17.462;2023-11-18T08:06:07;14.10;51.20
33943;DHT22;66763;47.856;17.462;2023-11-18T08:08:32;14.10;51.30
33943;DHT22;66763;47.856;17.462;2023-11-18T08:10:58;14.10;51.20
33943;DHT22;66763;47.856;17.462;2023-11-18T08:13:25;14.10;51.30
33943;DHT22;66763;47.856;17.462;2023-11-18T08:15:51;14.00;51.20
33943;DHT22;66763;47.856;17.462;2023-11-18T08:18:17;14.10;51.30
33943;DHT22;66763;47.856;17.462;2023-11-18T08:20:43;14.10;51.20
33943;DHT22;66763;47.856;17.462;2023-11-18T08:23:09;14.10;51.20
33943;DHT22;66763;47.856;17.462;2023-11-18T08:25:35;14.10;51.20
33943;DHT22;66763;47.856;17.462;2023-11-18T08:28:07;14.10;51.30
33943;DHT22;66763;47.856;17.462;2023-11-18T08:30:33;14.10;51.10
33943;DHT22;66763;47.856;17.462;2023-11-18T08:33:01;14.10;51.20
33943;DHT22;66763;47.856;17.462;2023-11-18T08:35:29;14.00;51.10
33943;DHT22;66763;47.856;17.462;2023-11-18T08:37:56;14.00;51.10
33943;DHT22;66763;47.856;17.462;2023-11-18T08:40:22;14.00;51.20
33943;DHT22;66763;47.856;17.462;2023-11-18T08:42:48;14.00;51.20
33943;DHT22;66763;47.856;17.462;2023-11-18T08:45:15;14.00;51.20
33943;DHT22;66763;47.856;17.462;2023-11-18T08:47:44;14.00;51.20
33943;DHT22;66763;47.856;17.462;2023-11-18T08:50:12;14.00;51.20
33943;DHT22;66763;47.856;17.462;2023-11-18T08:52:38;14.00;51.20
33943;DHT22;66763;47.856;17.462;2023-11-18T08:55:09;14.00;51.20
33943;DHT22;66763;47.856;17.462;2023-11-18T08:57:48;14.00;51.20
33943;DHT22;66763;47.856;17.462;2023-11-18T09:00:17;14.10;51.20
33943;DHT22;66763;47.856;17.462;2023-11-18T09:03:02;14.10;51.20
33943;DHT22;66763;47.856;17.462;2023-11-18T09:05:31;14.00;51.20
33943;DHT22;66763;47.856;17.462;2023-11-18T09:07:57;14.00;51.20
33943;DHT22;66763;47.856;17.462;2023-11-18T09:10:23;14.00;51.30
33943;DHT22;66763;47.856;17.462;2023-11-18T09:12:49;14.00;51.20
33943;DHT22;66763;47.856;17.462;2023-11-18T09:15:14;14.00;51.20
33943;DHT22;66763;47.856;17.462;2023-11-18T09:17:48;14.00;51.20
33943;DHT22;66763;47.856;17.462;2023-11-18T09:20:14;14.00;51.20
33943;DHT22;66763;47.856;17.462;2023-11-18T09:22:43;14.00;51.20
33943;DHT22;66763;47.856;17.462;2023-11-18T09:25:09;14.00;51.20
33943;DHT22;66763;47.856;17.462;2023-11-18T09:27:36;14.10;51.20
33943;DHT22;66763;47.856;17.462;2023-11-18T09:30:02;14.00;51.20
33943;DHT22;66763;47.856;17.462;2023-11-18T09:32:39;14.00;51.20
33943;DHT22;66763;47.856;17.462;2023-11-18T09:35:07;14.00;51.10
33943;DHT22;66763;47.856;17.462;2023-11-18T09:37:35;14.00;51.20
33943;DHT22;66763;47.856;17.462;2023-11-18T09:40:00;14.00;51.10
33943;DHT22;66763;47.856;17.462;2023-11-18T09:42:39;14.00;51.20
33943;DHT22;66763;47.856;17.462;2023-11-18T09:45:05;14.00;51.70
33943;DHT22;66763;47.856;17.462;2023-11-18T09:47:35;14.00;51.20
33943;DHT22;66763;47.856;17.462;2023-11-18T09:50:02;14.10;51.20
33943;DHT22;66763;47.856;17.462;2023-11-18T09:52:30;14.00;51.10
33943;DHT22;66763;47.856;17.462;2023-11-18T09:57:26;14.00;51.20
33943;DHT22;66763;47.856;17.462;2023-11-18T09:59:58;14.00;51.20
33943;DHT22;66763;47.856;17.462;2023-11-18T10:02:37;14.00;51.20
33943;DHT22;66763;47.856;17.462;2023-11-18T10:05:06;14.00;51.20
33943;DHT22;66763;47.856;17.462;2023-11-18T10:07:39;14.00;51.20
33943;DHT22;66763;47.856;17.462;2023-11-18T10:10:04;14.00;51.10
33943;DHT22;66763;47.856;17.462;2023-11-18T10:12:30;14.00;51.20
33943;DHT22;66763;47.856;17.462;2023-11-18T10:14:55;14.00;51.20
33943;DHT22;66763;47.856;17.462;2023-11-18T10:17:22;14.00;51.20
33943;DHT22;66763;47.856;17.462;2023-11-18T10:22:26;14.00;51.20
33943;DHT22;66763;47.856;17.462;2023-11-18T10:24:56;14.00;51.20
33943;DHT22;66763;47.856;17.462;2023-11-18T10:27:23;14.00;51.10
33943;DHT22;66763;47.856;17.462;2023-11-18T10:29:51;14.00;51.10
33943;DHT22;66763;47.856;17.462;2023-11-18T10:32:19;14.00;51.20
33943;DHT22;66763;47.856;17.462;2023-11-18T10:34:48;13.90;51.20
33943;DHT22;66763;47.856;17.462;2023-11-18T10:37:14;14.00;51.10
33943;DHT22;66763;47.856;17.462;2023-11-18T10:39:46;14.00;51.80
33943;DHT22;66763;47.856;17.462;2023-11-18T10:42:12;14.00;51.10
33943;DHT22;66763;47.856;17.462;2023-11-18T10:44:37;13.90;51.10
33943;DHT22;66763;47.856;17.462;2023-11-18T10:47:03;13.90;51.10
33943;DHT22;66763;47.856;17.462;2023-11-18T10:49:28;14.00;51.10
33943;DHT22;66763;47.856;17.462;2023-11-18T10:51:57;14.00;51.20
33943;DHT22;66763;47.856;17.462;2023-11-18T10:54:22;13.90;51.10
33943;DHT22;66763;47.856;17.462;2023-11-18T10:56:48;14.00;51.20
33943;DHT22;66763;47.856;17.462;2023-11-18T10:59:14;14.00;51.20
33943;DHT22;66763;47.856;17.462;2023-11-18T11:01:43;13.90;51.10
33943;DHT22;66763;47.856;17.462;2023-11-18T11:04:10;14.00;51.20
33943;DHT22;66763;47.856;17.462;2023-11-18T11:06:39;14.00;51.10
33943;DHT22;66763;47.856;17.462;2023-11-18T11:09:07;14.00;51.10
33943;DHT22;66763;47.856;17.462;2023-11-18T11:11:40;14.00;51.20
33943;DHT22;66763;47.856;17.462;2023-11-18T11:14:08;14.00;51.20
33943;DHT22;66763;47.856;17.462;2023-11-18T11:16:44;13.90;51.10
33943;DHT22;66763;47.856;17.462;2023-11-18T11:19:16;13.90;51.10
33943;DHT22;66763;47.856;17.462;2023-11-18T11:21:50;13.90;51.10
33943;DHT22;66763;47.856;17.462;2023-11-18T11:29:59;13.90;51.20
33943;DHT22;66763;47.856;17.462;2023-11-18T11:32:25;14.00;51.20
33943;DHT22;66763;47.856;17.462;2023-11-18T11:34:54;14.00;51.10
33943;DHT22;66763;47.856;17.462;2023-11-18T11:37:25;13.90;51.10
33943;DHT22;66763;47.856;17.462;2023-11-18T11:39:51;13.90;51.10
33943;DHT22;66763;47.856;17.462;2023-11-18T11:42:19;13.90;51.10
33943;DHT22;66763;47.856;17.462;2023-11-18T11:44:46;14.00;51.20
33943;DHT22;66763;47.856;17.462;2023-11-18T11:47:12;13.90;51.10
33943;DHT22;66763;47.856;17.462;2023-11-18T11:50:15;14.00;51.10
33943;DHT22;66763;47.856;17.462;2023-11-18T11:52:35;13.90;51.10
33943;DHT22;66763;47.856;17.462;2023-11-18T11:57:52;13.90;51.20
33943;DHT22;66763;47.856;17.462;2023-11-18T12:00:23;13.90;51.20
33943;DHT22;66763;47.856;17.462;2023-11-18T12:03:00;13.90;51.20
33943;DHT22;66763;47.856;17.462;2023-11-18T12:05:29;13.90;51.20
33943;DHT22;66763;47.856;17.462;2023-11-18T12:07:58;13.90;51.20
33943;DHT22;66763;47.856;17.462;2023-11-18T12:10:27;13.90;51.10
33943;DHT22;66763;47.856;17.462;2023-11-18T12:13:08;13.90;51.20
33943;DHT22;66763;47.856;17.462;2023-11-18T12:15:47;13.90;51.20
33943;DHT22;66763;47.856;17.462;2023-11-18T12:18:13;13.90;51.20
33943;DHT22;66763;47.856;17.462;2023-11-18T12:20:42;13.90;51.20
33943;DHT22;66763;47.856;17.462;2023-11-18T12:23:10;13.90;51.20
33943;DHT22;66763;47.856;17.462;2023-11-18T12:25:43;13.90;51.20
33943;DHT22;66763;47.856;17.462;2023-11-18T12:28:32;13.90;51.20
33943;DHT22;66763;47.856;17.462;2023-11-18T12:31:00;13.90;51.20
33943;DHT22;66763;47.856;17.462;2023-11-18T12:46:31;13.90;51.20
33943;DHT22;66763;47.856;17.462;2023-11-18T12:49:04;13.90;51.20
33943;DHT22;66763;47.856;17.462;2023-11-18T12:51:30;13.90;51.20
33943;DHT22;66763;47.856;17.462;2023-11-18T12:53:59;13.90;51.20
33943;DHT22;66763;47.856;17.462;2023-11-18T12:56:27;13.90;51.20
33943;DHT22;66763;47.856;17.462;2023-11-18T12:58:55;13.90;51.20
33943;DHT22;66763;47.856;17.462;2023-11-18T13:01:20;13.90;51.30
33943;DHT22;66763;47.856;17.462;2023-11-18T13:03:46;13.90;51.20
33943;DHT22;66763;47.856;17.462;2023-11-18T13:06:12;13.90;51.20
33943;DHT22;66763;47.856;17.462;2023-11-18T13:08:38;13.90;51.20
33943;DHT22;66763;47.856;17.462;2023-11-18T13:11:04;13.90;51.20
33943;DHT22;66763;47.856;17.462;2023-11-18T13:13:33;13.90;51.20
33943;DHT22;66763;47.856;17.462;2023-11-18T13:15:58;13.90;51.20
33943;DHT22;66763;47.856;17.462;2023-11-18T13:18:24;13.90;51.20
33943;DHT22;66763;47.856;17.462;2023-11-18T13:20:55;13.90;51.20
33943;DHT22;66763;47.856;17.462;2023-11-18T13:23:24;13.90;51.20
33943;DHT22;66763;47.856;17.462;2023-11-18T13:25:50;13.80;51.20
33943;DHT22;66763;47.856;17.462;2023-11-18T13:28:15;13.90;51.20
33943;DHT22;66763;47.856;17.462;2023-11-18T13:30:41;13.90;51.30
33943;DHT22;66763;47.856;17.462;2023-11-18T13:33:08;13.80;51.20
33943;DHT22;66763;47.856;17.462;2023-11-18T13:35:33;13.90;51.30
33943;DHT22;66763;47.856;17.462;2023-11-18T13:37:59;13.90;51.30
33943;DHT22;66763;47.856;17.462;2023-11-18T13:40:24;13.90;51.20
33943;DHT22;66763;47.856;17.462;2023-11-18T13:43:11;13.80;51.20
33943;DHT22;66763;47.856;17.462;2023-11-18T13:45:35;13.90;51.30
33943;DHT22;66763;47.856;17.462;2023-11-18T13:48:01;13.90;51.20
33943;DHT22;66763;47.856;17.462;2023-11-18T13:50:27;13.90;51.20
33943;DHT22;66763;47.856;17.462;2023-11-18T13:52:53;13.90;51.20
33943;DHT22;66763;47.856;17.462;2023-11-18T13:55:19;13.90;51.20
33943;DHT22;66763;47.856;17.462;2023-11-18T13:57:56;13.90;51.20
33943;DHT22;66763;47.856;17.462;2023-11-18T14:00:26;13.90;51.20
33943;DHT22;66763;47.856;17.462;2023-11-18T14:02:55;13.90;51.30
33943;DHT22;66763;47.856;17.462;2023-11-18T14:05:24;13.90;51.20
33943;DHT22;66763;47.856;17.462;2023-11-18T14:07:51;13.90;51.20
33943;DHT22;66763;47.856;17.462;2023-11-18T14:10:17;13.90;51.20
33943;DHT22;66763;47.856;17.462;2023-11-18T14:13:03;13.90;51.30
33943;DHT22;66763;47.856;17.462;2023-11-18T14:15:33;13.90;51.20
33943;DHT22;66763;47.856;17.462;2023-11-18T14:18:02;13.90;51.30
33943;DHT22;66763;47.856;17.462;2023-11-18T14:20:28;13.90;51.20
33943;DHT22;66763;47.856;17.462;2023-11-18T14:22:55;13.90;51.30
33943;DHT22;66763;47.856;17.462;2023-11-18T14:25:21;13.90;51.30
33943;DHT22;66763;47.856;17.462;2023-11-18T14:27:49;13.80;51.30
33943;DHT22;66763;47.856;17.462;2023-11-18T14:30:14;13.80;51.20
33943;DHT22;66763;47.856;17.462;2023-11-18T14:32:42;13.90;51.30
33943;DHT22;66763;47.856;17.462;2023-11-18T14:35:07;13.80;51.30
33943;DHT22;66763;47.856;17.462;2023-11-18T14:37:37;13.80;51.30
33943;DHT22;66763;47.856;17.462;2023-11-18T14:40:05;13.90;51.30
33943;DHT22;66763;47.856;17.462;2023-11-18T14:42:33;13.90;51.30
33943;DHT22;66763;47.856;17.462;2023-11-18T14:44:59;13.90;51.30
33943;DHT22;66763;47.856;17.462;2023-11-18T14:47:24;13.80;51.30
33943;DHT22;66763;47.856;17.462;2023-11-18T14:49:50;13.90;51.30
33943;DHT22;66763;47.856;17.462;2023-11-18T14:52:15;13.90;51.30
33943;DHT22;66763;47.856;17.462;2023-11-18T14:54:41;13.90;51.30
33943;DHT22;66763;47.856;17.462;2023-11-18T14:57:07;13.90;51.30
33943;DHT22;66763;47.856;17.462;2023-11-18T14:59:34;13.90;51.30
33943;DHT22;66763;47.856;17.462;2023-11-18T15:01:59;13.80;51.30
33943;DHT22;66763;47.856;17.462;2023-11-18T15:04:25;13.90;51.30
33943;DHT22;66763;47.856;17.462;2023-11-18T15:06:51;13.90;51.30
33943;DHT22;66763;47.856;17.462;2023-11-18T15:09:21;13.80;51.30
33943;DHT22;66763;47.856;17.462;2023-11-18T15:11:49;13.90;51.30
33943;DHT22;66763;47.856;17.462;2023-11-18T15:14:15;13.80;51.20
33943;DHT22;66763;47.856;17.462;2023-11-18T15:16:41;13.80;51.30
33943;DHT22;66763;47.856;17.462;2023-11-18T15:19:07;13.80;51.30
33943;DHT22;66763;47.856;17.462;2023-11-18T15:21:32;13.90;51.30
33943;DHT22;66763;47.856;17.462;2023-11-18T15:23:58;13.80;51.20
33943;DHT22;66763;47.856;17.462;2023-11-18T15:26:26;13.90;51.30
33943;DHT22;66763;47.856;17.462;2023-11-18T15:28:51;13.80;51.30
33943;DHT22;66763;47.856;17.462;2023-11-18T15:31:18;13.80;51.30
33943;DHT22;66763;47.856;17.462;2023-11-18T15:33:43;13.80;51.20
33943;DHT22;66763;47.856;17.462;2023-11-18T15:36:11;13.80;51.30
33943;DHT22;66763;47.856;17.462;2023-11-18T15:38:36;13.80;51.20
33943;DHT22;66763;47.856;17.462;2023-11-18T15:41:02;13.80;51.30
33943;DHT22;66763;47.856;17.462;2023-11-18T15:43:27;13.80;51.30
33943;DHT22;66763;47.856;17.462;2023-11-18T15:45:53;13.80;51.30